Time;durP1;ratioP1;P1;durP2;ratioP2;P2;SDS_P1;SDS_P2;PMS_P1;PMS_P2;Temp;Humidity;BMP_temperature;BMP_pressure;BME280_temperature;BME280_humidity;BME280_pressure;Samples;Min_cycle;Max_cycle;Signal;HPM_P1;HPM_P2
2023/02/06 00:00:46;;;;;;;27.10;9.27;;;28.20;75.90;;;;;;5074667;28;20040;-58
2023/02/06 00:03:13;;;;;;;33.75;9.30;;;28.20;75.90;;;;;;5076829;28;20106;-57
2023/02/06 00:05:39;;;;;;;22.63;8.48;;;28.20;76.00;;;;;;5066259;28;20332;-58
2023/02/06 00:08:06;;;;;;;34.78;8.50;;;28.20;76.00;;;;;;5082942;28;20313;-56
2023/02/06 00:10:33;;;;;;;32.75;8.18;;;28.20;76.00;;;;;;5082636;28;20020;-58
2023/02/06 00:13:00;;;;;;;29.10;7.65;;;28.30;76.20;;;;;;5078061;28;20108;-55
2023/02/06 00:15:26;;;;;;;27.58;7.65;;;28.20;76.20;;;;;;5072060;28;20023;-58
2023/02/06 00:17:53;;;;;;;25.85;8.18;;;28.30;76.40;;;;;;5079402;28;20062;-58
2023/02/06 00:20:19;;;;;;;21.58;7.07;;;28.20;76.50;;;;;;5081725;28;20194;-58
2023/02/06 00:22:46;;;;;;;22.08;6.88;;;28.30;76.70;;;;;;5084449;28;20219;-56
2023/02/06 00:25:13;;;;;;;26.45;7.00;;;28.20;76.80;;;;;;5086818;28;20268;-56
2023/02/06 00:27:39;;;;;;;36.55;8.63;;;28.20;77.40;;;;;;5086132;28;20012;-56
2023/02/06 00:30:06;;;;;;;30.73;7.65;;;28.20;77.00;;;;;;5086736;28;20041;-55
2023/02/06 00:32:34;;;;;;;21.15;6.75;;;28.20;76.90;;;;;;5083351;28;20157;-57
2023/02/06 00:35:01;;;;;;;21.45;6.95;;;28.20;77.00;;;;;;5078623;28;20305;-58
2023/02/06 00:37:27;;;;;;;25.15;7.10;;;28.20;77.00;;;;;;5079671;28;20043;-56
2023/02/06 00:39:55;;;;;;;19.13;6.18;;;28.20;77.00;;;;;;5081542;28;20028;-57
2023/02/06 00:42:22;;;;;;;21.95;6.30;;;28.20;76.90;;;;;;5083240;28;20027;-58
2023/02/06 00:44:48;;;;;;;24.27;5.82;;;28.20;77.00;;;;;;5074282;28;20063;-55
2023/02/06 00:47:15;;;;;;;22.35;7.03;;;28.20;77.00;;;;;;5072737;28;20025;-59
2023/02/06 00:49:41;;;;;;;31.00;7.32;;;28.20;77.00;;;;;;5083994;28;20043;-55
2023/02/06 00:52:08;;;;;;;30.88;6.47;;;28.20;77.00;;;;;;5082032;28;20058;-56
2023/02/06 00:54:34;;;;;;;25.85;7.60;;;28.10;76.80;;;;;;5076931;28;20029;-59
2023/02/06 00:57:01;;;;;;;21.73;7.38;;;28.10;76.90;;;;;;5084726;28;20178;-59
2023/02/06 00:59:28;;;;;;;23.98;6.47;;;28.10;76.70;;;;;;5080287;28;20328;-57
2023/02/06 01:01:54;;;;;;;21.75;6.22;;;28.10;76.60;;;;;;5081133;28;20074;-58
2023/02/06 01:04:21;;;;;;;20.52;5.68;;;28.10;76.60;;;;;;5076021;28;20033;-58
2023/02/06 01:06:48;;;;;;;26.88;5.95;;;28.10;76.60;;;;;;5075541;28;20036;-59
2023/02/06 01:09:14;;;;;;;34.60;6.10;;;28.10;76.60;;;;;;5073982;28;20036;-55
2023/02/06 01:11:41;;;;;;;40.65;6.85;;;28.10;76.50;;;;;;5081206;28;20080;-55
2023/02/06 01:14:08;;;;;;;34.03;5.70;;;28.10;76.30;;;;;;5085661;28;20082;-57
2023/02/06 01:16:37;;;;;;;30.38;5.35;;;28.10;76.10;;;;;;5085819;28;20024;-55
2023/02/06 01:19:03;;;;;;;22.35;4.70;;;28.10;76.10;;;;;;5085730;28;20025;-57
2023/02/06 01:21:30;;;;;;;23.88;4.75;;;28.10;75.90;;;;;;5085356;28;20033;-57
2023/02/06 01:23:57;;;;;;;16.05;4.70;;;28.10;75.90;;;;;;5081682;28;20025;-55
2023/02/06 01:26:25;;;;;;;19.40;4.50;;;28.10;75.90;;;;;;5072376;28;20095;-56
2023/02/06 01:28:53;;;;;;;27.85;4.63;;;28.10;76.00;;;;;;5085271;28;20032;-55
2023/02/06 01:31:26;;;;;;;16.50;4.00;;;28.10;75.90;;;;;;5074223;28;20201;-57
2023/02/06 01:33:54;;;;;;;10.90;3.50;;;28.10;75.70;;;;;;5072952;28;20205;-56
2023/02/06 01:36:22;;;;;;;11.48;3.60;;;28.10;75.60;;;;;;5080715;28;20251;-59
2023/02/06 01:38:49;;;;;;;10.43;3.63;;;28.10;75.30;;;;;;5079215;28;20328;-56
2023/02/06 01:41:18;;;;;;;14.98;3.58;;;28.10;75.40;;;;;;5067973;28;20025;-56
2023/02/06 01:44:06;;;;;;;11.40;3.78;;;28.10;75.20;;;;;;5077097;28;20080;-57
2023/02/06 01:46:33;;;;;;;8.35;3.30;;;28.10;75.10;;;;;;5079313;28;20044;-61
2023/02/06 01:49:00;;;;;;;13.93;3.90;;;28.00;74.80;;;;;;5076962;28;20039;-58
2023/02/06 01:51:28;;;;;;;9.00;3.90;;;28.00;75.00;;;;;;5076121;28;20288;-55
2023/02/06 01:53:59;;;;;;;8.57;4.00;;;28.00;75.20;;;;;;5069259;28;20163;-56
2023/02/06 01:56:30;;;;;;;9.17;3.87;;;28.00;75.10;;;;;;5074489;28;20263;-57
2023/02/06 01:59:01;;;;;;;8.95;3.50;;;28.00;74.70;;;;;;5065376;28;20108;-58
2023/02/06 02:01:30;;;;;;;10.90;3.70;;;28.00;74.50;;;;;;5066284;28;20032;-57
2023/02/06 02:04:12;;;;;;;31.45;5.35;;;28.00;74.40;;;;;;5073098;28;20052;-55
2023/02/06 02:06:40;;;;;;;17.67;4.05;;;28.00;74.20;;;;;;5084259;28;20029;-58
2023/02/06 02:09:07;;;;;;;11.77;3.60;;;28.00;74.00;;;;;;5084721;28;20036;-56
2023/02/06 02:11:36;;;;;;;10.43;3.20;;;28.00;73.80;;;;;;5084547;28;20043;-56
2023/02/06 02:14:06;;;;;;;11.98;3.58;;;28.00;73.70;;;;;;5083353;28;20186;-56
2023/02/06 02:16:53;;;;;;;14.90;3.20;;;28.00;73.60;;;;;;5067131;28;20191;-56
2023/02/06 02:19:57;;;;;;;6.28;2.47;;;28.00;73.50;;;;;;5073305;28;20084;-58
2023/02/06 02:22:23;;;;;;;6.35;2.75;;;28.00;73.40;;;;;;5071371;28;20036;-55
2023/02/06 02:24:59;;;;;;;10.23;3.10;;;27.90;73.20;;;;;;5067537;28;20033;-58
2023/02/06 02:27:47;;;;;;;15.32;3.47;;;28.00;73.40;;;;;;5071401;28;20043;-59
2023/02/06 02:30:37;;;;;;;7.70;2.80;;;27.90;73.30;;;;;;5064236;28;20028;-58
2023/02/06 02:33:32;;;;;;;9.48;2.85;;;27.90;73.20;;;;;;5035797;28;20044;-56
2023/02/06 02:36:54;;;;;;;7.97;2.70;;;27.90;73.00;;;;;;5062777;28;20035;-57
2023/02/06 02:39:34;;;;;;;8.90;3.58;;;27.90;73.00;;;;;;5021083;28;20046;-60
2023/02/06 02:42:10;;;;;;;11.82;4.60;;;27.90;73.00;;;;;;5062769;28;20333;-57
2023/02/06 02:44:51;;;;;;;12.95;4.68;;;27.90;72.90;;;;;;5081323;28;20119;-58
2023/02/06 02:47:24;;;;;;;13.75;4.95;;;27.90;73.00;;;;;;5071029;28;20017;-56
2023/02/06 02:49:52;;;;;;;13.52;4.57;;;27.90;73.00;;;;;;5070736;28;20113;-57
2023/02/06 02:52:18;;;;;;;10.57;3.97;;;27.90;73.00;;;;;;5074250;28;20065;-56
2023/02/06 02:54:45;;;;;;;5.00;3.08;;;27.90;73.10;;;;;;5066623;28;20044;-58
2023/02/06 02:57:25;;;;;;;10.13;3.15;;;27.90;72.90;;;;;;5074878;28;20340;-56
2023/02/06 02:59:56;;;;;;;8.65;3.30;;;27.90;73.00;;;;;;5077276;28;20100;-57
2023/02/06 03:02:33;;;;;;;8.63;3.15;;;27.90;73.00;;;;;;5083233;28;20322;-57
2023/02/06 03:05:07;;;;;;;5.97;2.70;;;27.90;73.20;;;;;;5074224;28;20037;-55
2023/02/06 03:07:57;;;;;;;7.18;3.20;;;27.90;72.60;;;;;;5063728;28;20104;-56
2023/02/06 03:10:56;;;;;;;12.32;3.22;;;27.90;72.70;;;;;;5073764;28;20283;-60
2023/02/06 03:13:36;;;;;;;9.93;2.90;;;27.90;72.70;;;;;;5075608;28;20021;-56
2023/02/06 03:16:36;;;;;;;9.80;3.03;;;27.80;72.70;;;;;;5066595;28;20029;-56
2023/02/06 03:19:29;;;;;;;9.07;2.90;;;27.80;72.70;;;;;;5074937;28;20024;-58
2023/02/06 03:21:56;;;;;;;7.40;2.33;;;27.80;72.50;;;;;;5083892;28;20032;-59
2023/02/06 03:24:27;;;;;;;8.05;3.03;;;27.80;72.50;;;;;;5084047;28;20190;-58
2023/02/06 03:27:00;;;;;;;6.95;2.60;;;27.80;72.50;;;;;;5083812;28;20051;-57
2023/02/06 03:29:30;;;;;;;5.65;2.42;;;27.90;72.60;;;;;;5083861;28;20025;-59
2023/02/06 03:32:34;;;;;;;5.90;2.47;;;27.80;72.50;;;;;;5083577;28;20265;-56
2023/02/06 03:35:11;;;;;;;6.80;2.67;;;27.80;72.50;;;;;;5081038;28;20149;-55
2023/02/06 03:37:38;;;;;;;8.05;2.53;;;27.80;72.50;;;;;;5083699;28;20092;-57
2023/02/06 03:40:07;;;;;;;6.80;2.38;;;27.80;72.40;;;;;;5083978;28;20275;-55
2023/02/06 03:42:37;;;;;;;4.45;2.10;;;27.80;72.40;;;;;;5083446;28;20086;-55
2023/02/06 03:45:16;;;;;;;5.65;2.30;;;27.80;72.30;;;;;;5083427;28;20119;-57
2023/02/06 03:47:45;;;;;;;5.32;2.22;;;27.80;72.30;;;;;;5084558;28;20043;-58
2023/02/06 03:50:14;;;;;;;11.48;2.60;;;27.80;72.30;;;;;;5087830;28;20035;-58
2023/02/06 03:52:45;;;;;;;3.97;1.90;;;27.80;72.30;;;;;;5087368;28;20213;-55
2023/02/06 03:55:22;;;;;;;6.00;2.28;;;27.80;72.20;;;;;;5087198;28;20221;-55
2023/02/06 03:58:15;;;;;;;4.03;2.10;;;27.80;72.30;;;;;;5087269;28;20308;-55
2023/02/06 04:00:45;;;;;;;4.85;2.45;;;27.80;72.30;;;;;;5083824;28;20037;-57
2023/02/06 04:03:14;;;;;;;9.60;2.33;;;27.80;72.20;;;;;;5087044;28;20039;-54
2023/02/06 04:05:41;;;;;;;7.30;2.80;;;27.80;72.10;;;;;;5082334;28;20054;-57
2023/02/06 04:08:16;;;;;;;6.30;2.38;;;27.80;72.20;;;;;;5086993;28;20027;-57
2023/02/06 04:10:42;;;;;;;7.50;2.40;;;27.80;72.20;;;;;;5081053;28;20033;-55
2023/02/06 04:13:09;;;;;;;5.20;2.42;;;27.80;72.20;;;;;;5086850;28;20021;-58
2023/02/06 04:15:36;;;;;;;6.13;2.88;;;27.80;72.20;;;;;;5087421;28;20033;-56
2023/02/06 04:18:02;;;;;;;7.15;3.50;;;27.70;72.20;;;;;;5086823;28;20042;-62
2023/02/06 04:20:29;;;;;;;6.55;3.22;;;27.70;72.20;;;;;;5086709;28;20316;-62
2023/02/06 04:22:56;;;;;;;8.52;3.10;;;27.70;72.20;;;;;;5086887;28;20016;-62
2023/02/06 04:25:23;;;;;;;7.88;3.10;;;27.70;72.20;;;;;;5087267;28;20021;-58
2023/02/06 04:27:50;;;;;;;12.55;2.97;;;27.70;72.10;;;;;;5086588;28;20096;-58
2023/02/06 04:30:17;;;;;;;10.38;2.70;;;27.70;72.10;;;;;;5087024;28;20033;-56
2023/02/06 04:32:43;;;;;;;5.15;2.47;;;27.70;72.00;;;;;;5086752;28;20081;-60
2023/02/06 04:35:10;;;;;;;5.90;2.88;;;27.70;72.10;;;;;;5086939;28;20085;-59
2023/02/06 04:37:37;;;;;;;5.28;2.67;;;27.70;72.10;;;;;;5086509;28;20032;-57
2023/02/06 04:40:04;;;;;;;8.32;2.90;;;27.70;72.10;;;;;;5087047;28;20040;-55
2023/02/06 04:42:30;;;;;;;5.63;2.72;;;27.60;72.10;;;;;;5086342;28;20036;-56
2023/02/06 04:44:57;;;;;;;6.60;2.83;;;27.70;72.10;;;;;;5085992;28;20056;-55
2023/02/06 04:47:24;;;;;;;9.68;4.70;;;27.60;72.00;;;;;;5086335;28;20189;-55
2023/02/06 04:49:50;;;;;;;8.32;4.97;;;27.70;72.10;;;;;;5086531;28;20304;-55
2023/02/06 04:52:17;;;;;;;8.68;3.95;;;27.70;72.10;;;;;;5086240;28;20032;-56
2023/02/06 04:54:43;;;;;;;6.63;3.70;;;27.70;72.00;;;;;;5086245;28;20212;-57
2023/02/06 04:57:10;;;;;;;6.75;3.33;;;27.70;72.00;;;;;;5086010;28;20056;-59
2023/02/06 04:59:36;;;;;;;7.90;3.30;;;27.60;72.00;;;;;;5085581;28;20201;-59
2023/02/06 05:02:03;;;;;;;6.57;3.38;;;27.70;72.10;;;;;;5086254;28;20028;-56
2023/02/06 05:04:29;;;;;;;6.80;4.10;;;27.60;72.10;;;;;;5086186;28;20255;-55
2023/02/06 05:06:56;;;;;;;8.25;4.07;;;27.70;72.10;;;;;;5086170;28;20063;-56
2023/02/06 05:09:23;;;;;;;9.60;4.78;;;27.60;72.00;;;;;;5086097;28;20047;-55
2023/02/06 05:11:49;;;;;;;11.18;6.15;;;27.60;71.90;;;;;;5085765;28;20054;-53
2023/02/06 05:14:16;;;;;;;14.80;7.45;;;27.60;71.80;;;;;;5086312;28;20032;-57
2023/02/06 05:16:43;;;;;;;13.90;7.82;;;27.60;71.80;;;;;;5085857;28;20043;-56
2023/02/06 05:19:09;;;;;;;15.45;8.32;;;27.70;71.90;;;;;;5085910;28;20028;-58
2023/02/06 05:21:36;;;;;;;12.18;6.57;;;27.60;71.90;;;;;;5085813;28;20032;-59
2023/02/06 05:24:02;;;;;;;12.07;6.40;;;27.70;71.90;;;;;;5085854;28;20055;-57
2023/02/06 05:26:29;;;;;;;10.48;5.80;;;27.60;71.70;;;;;;5085630;28;20024;-57
2023/02/06 05:28:55;;;;;;;21.45;8.45;;;27.70;71.90;;;;;;5085559;28;20040;-58
2023/02/06 05:31:22;;;;;;;26.73;11.15;;;27.60;71.90;;;;;;5085643;28;20025;-58
2023/02/06 05:33:53;;;;;;;25.15;12.70;;;27.60;71.90;;;;;;5085437;28;20032;-56
2023/02/06 05:36:21;;;;;;;18.37;11.47;;;27.60;71.90;;;;;;5085341;28;20020;-57
2023/02/06 05:38:49;;;;;;;15.55;9.27;;;27.60;72.00;;;;;;5085262;28;20073;-59
2023/02/06 05:41:17;;;;;;;16.00;8.05;;;27.60;72.00;;;;;;5085271;28;20024;-63
2023/02/06 05:43:43;;;;;;;16.00;7.00;;;27.60;72.10;;;;;;5085074;28;20036;-57
2023/02/06 05:46:11;;;;;;;11.32;5.95;;;27.60;72.10;;;;;;5085285;28;20126;-57
2023/02/06 05:48:38;;;;;;;7.50;4.88;;;27.60;72.10;;;;;;5085373;28;20031;-58
2023/02/06 05:51:05;;;;;;;8.63;3.88;;;27.60;72.20;;;;;;5085386;28;20063;-60
2023/02/06 05:53:31;;;;;;;8.38;4.00;;;27.60;72.20;;;;;;5085081;28;20088;-57
2023/02/06 05:55:58;;;;;;;7.05;4.00;;;27.60;72.30;;;;;;5085328;28;20023;-62
2023/02/06 05:58:24;;;;;;;5.45;3.13;;;27.60;72.40;;;;;;5085014;28;20043;-57
2023/02/06 06:00:51;;;;;;;7.82;3.67;;;27.60;72.40;;;;;;5085318;28;20024;-58
2023/02/06 06:03:18;;;;;;;5.97;3.53;;;27.60;72.40;;;;;;5084911;28;20145;-58
2023/02/06 06:05:45;;;;;;;5.82;2.85;;;27.60;72.30;;;;;;5084831;28;20020;-57
2023/02/06 06:08:11;;;;;;;4.47;2.50;;;27.60;72.20;;;;;;5084745;28;20055;-58
2023/02/06 06:10:38;;;;;;;6.82;2.78;;;27.60;72.30;;;;;;5084393;28;20212;-57
2023/02/06 06:13:05;;;;;;;5.45;2.80;;;27.60;72.20;;;;;;5084628;28;20017;-57
2023/02/06 06:15:31;;;;;;;5.15;3.00;;;27.60;72.30;;;;;;5084590;28;20074;-56
2023/02/06 06:17:58;;;;;;;6.47;2.78;;;27.50;72.30;;;;;;5084760;28;20046;-60
2023/02/06 06:20:25;;;;;;;9.25;2.83;;;27.60;72.40;;;;;;5085328;28;20039;-59
2023/02/06 06:22:51;;;;;;;4.93;2.50;;;27.60;72.40;;;;;;5084751;28;20032;-58
2023/02/06 06:25:18;;;;;;;5.97;2.70;;;27.50;72.30;;;;;;5084417;28;20224;-58
2023/02/06 06:27:44;;;;;;;4.50;2.22;;;27.60;72.30;;;;;;5084333;28;20312;-61
2023/02/06 06:30:11;;;;;;;4.97;2.33;;;27.60;72.20;;;;;;5084757;28;20038;-58
2023/02/06 06:32:38;;;;;;;4.32;2.40;;;27.50;72.10;;;;;;5084660;28;20215;-58
2023/02/06 06:35:05;;;;;;;4.25;2.70;;;27.60;72.20;;;;;;5084725;28;20040;-57
2023/02/06 06:37:31;;;;;;;3.50;2.20;;;27.60;72.20;;;;;;5084502;28;20058;-57
2023/02/06 06:39:58;;;;;;;6.95;2.53;;;27.50;72.20;;;;;;5084743;28;20029;-57
2023/02/06 06:42:24;;;;;;;5.53;2.30;;;27.60;72.20;;;;;;5084091;28;20047;-57
2023/02/06 06:44:51;;;;;;;6.10;2.30;;;27.50;72.20;;;;;;5084142;28;20045;-57
2023/02/06 06:47:18;;;;;;;5.45;2.50;;;27.60;72.30;;;;;;5084168;28;20382;-57
2023/02/06 06:49:44;;;;;;;5.38;2.50;;;27.50;72.30;;;;;;5084391;28;20209;-57
2023/02/06 06:52:11;;;;;;;5.85;2.47;;;27.50;72.40;;;;;;5084169;28;20054;-58
2023/02/06 06:54:38;;;;;;;7.05;2.65;;;27.50;72.40;;;;;;5084560;28;20070;-57
2023/02/06 06:57:05;;;;;;;6.55;2.58;;;27.50;72.40;;;;;;5083868;28;20368;-55
2023/02/06 06:59:31;;;;;;;4.78;2.58;;;27.50;72.50;;;;;;5084557;28;20060;-58
2023/02/06 07:01:58;;;;;;;8.20;2.80;;;27.50;72.60;;;;;;5083958;28;20208;-57
2023/02/06 07:04:28;;;;;;;5.20;2.28;;;27.50;72.60;;;;;;5084467;28;20243;-57
2023/02/06 07:06:55;;;;;;;3.88;2.30;;;27.50;72.60;;;;;;5083895;28;20024;-57
2023/02/06 07:09:21;;;;;;;3.78;2.13;;;27.50;72.60;;;;;;5084007;28;20024;-57
2023/02/06 07:11:48;;;;;;;6.68;2.42;;;27.50;72.60;;;;;;5084381;28;20032;-54
2023/02/06 07:14:15;;;;;;;4.07;2.33;;;27.50;72.60;;;;;;5084094;28;20307;-56
2023/02/06 07:16:41;;;;;;;5.28;2.30;;;27.50;72.60;;;;;;5083791;28;20036;-59
2023/02/06 07:19:08;;;;;;;4.22;2.65;;;27.50;72.60;;;;;;5084090;28;20186;-59
2023/02/06 07:21:35;;;;;;;5.25;2.30;;;27.50;72.60;;;;;;5083864;28;20024;-57
2023/02/06 07:24:03;;;;;;;3.40;2.20;;;27.50;72.60;;;;;;5087371;28;20376;-58
2023/02/06 07:26:29;;;;;;;3.67;2.25;;;27.50;72.60;;;;;;5088080;28;20024;-58
2023/02/06 07:28:56;;;;;;;4.72;2.25;;;27.50;72.60;;;;;;5087779;28;20044;-56
2023/02/06 07:31:23;;;;;;;3.70;2.25;;;27.50;72.60;;;;;;5087986;28;20012;-57
2023/02/06 07:33:49;;;;;;;4.68;2.85;;;27.50;72.70;;;;;;5088013;28;20032;-56
2023/02/06 07:36:17;;;;;;;3.92;2.40;;;27.50;72.60;;;;;;5088033;28;20240;-57
2023/02/06 07:38:44;;;;;;;4.38;2.50;;;27.50;72.70;;;;;;5087830;28;20025;-58
2023/02/06 07:41:10;;;;;;;3.33;2.30;;;27.50;72.70;;;;;;5087772;28;20035;-59
2023/02/06 07:43:38;;;;;;;4.90;2.25;;;27.50;72.80;;;;;;5087361;28;20315;-58
2023/02/06 07:46:05;;;;;;;4.68;2.40;;;27.50;72.80;;;;;;5087885;28;20040;-57
2023/02/06 07:48:31;;;;;;;5.70;2.50;;;27.50;72.70;;;;;;5087788;28;20208;-57
2023/02/06 07:51:07;;;;;;;6.40;2.67;;;27.40;72.60;;;;;;5087395;28;20248;-57
2023/02/06 07:53:35;;;;;;;4.55;2.53;;;27.40;72.70;;;;;;5087534;28;20032;-58
2023/02/06 07:56:02;;;;;;;4.90;2.72;;;27.50;72.80;;;;;;5087210;28;20055;-57
2023/02/06 07:58:28;;;;;;;4.45;2.20;;;27.40;72.70;;;;;;5087420;28;20086;-56
2023/02/06 08:00:55;;;;;;;4.25;2.53;;;27.40;72.70;;;;;;5087693;28;20016;-58
2023/02/06 08:03:21;;;;;;;3.38;2.42;;;27.40;72.60;;;;;;5087329;28;20020;-58
2023/02/06 08:05:48;;;;;;;4.40;2.10;;;27.40;72.60;;;;;;5087596;28;20064;-57
2023/02/06 08:08:14;;;;;;;4.90;2.60;;;27.40;72.60;;;;;;5086939;28;20062;-55
2023/02/06 08:10:41;;;;;;;5.07;2.60;;;27.40;72.60;;;;;;5087088;28;20033;-56
2023/02/06 08:13:07;;;;;;;4.60;2.50;;;27.40;72.50;;;;;;5086843;28;20016;-58
2023/02/06 08:15:34;;;;;;;4.18;2.20;;;27.40;72.50;;;;;;5086489;28;20322;-57
2023/02/06 08:18:00;;;;;;;4.10;2.20;;;27.40;72.50;;;;;;5086818;28;20075;-55
2023/02/06 08:20:27;;;;;;;3.88;2.30;;;27.40;72.50;;;;;;5086787;28;20030;-55
2023/02/06 08:22:54;;;;;;;4.85;2.28;;;27.40;72.50;;;;;;5087016;28;20043;-57
2023/02/06 08:25:21;;;;;;;5.40;2.25;;;27.40;72.50;;;;;;5087276;28;20052;-59
2023/02/06 08:27:51;;;;;;;4.75;2.40;;;27.40;72.50;;;;;;5087001;28;20048;-56
2023/02/06 08:30:17;;;;;;;3.45;2.17;;;27.40;72.50;;;;;;5087126;28;20255;-60
2023/02/06 08:32:44;;;;;;;4.57;2.22;;;27.40;72.50;;;;;;5086712;28;20016;-56
2023/02/06 08:35:11;;;;;;;5.15;2.28;;;27.40;72.50;;;;;;5086690;28;20028;-58
2023/02/06 08:37:37;;;;;;;5.75;2.50;;;27.40;72.40;;;;;;5086585;28;20012;-59
2023/02/06 08:40:04;;;;;;;4.55;2.25;;;27.40;72.40;;;;;;5087005;28;20031;-56
2023/02/06 08:42:31;;;;;;;5.40;2.60;;;27.40;72.50;;;;;;5086324;28;20316;-55
2023/02/06 08:44:57;;;;;;;4.43;2.55;;;27.40;72.50;;;;;;5086424;28;20078;-57
2023/02/06 08:47:24;;;;;;;3.80;2.30;;;27.40;72.70;;;;;;5086435;28;20051;-57
2023/02/06 08:49:50;;;;;;;4.93;2.30;;;27.40;72.70;;;;;;5086470;28;20032;-57
2023/02/06 08:52:17;;;;;;;4.50;2.35;;;27.40;72.80;;;;;;5086765;28;20077;-58
2023/02/06 08:54:44;;;;;;;4.53;2.53;;;27.40;72.80;;;;;;5086616;28;20036;-56
2023/02/06 08:57:11;;;;;;;6.70;2.55;;;27.40;72.90;;;;;;5086374;28;20016;-57
2023/02/06 08:59:38;;;;;;;6.07;2.50;;;27.40;72.90;;;;;;5086476;28;20305;-57
2023/02/06 09:02:05;;;;;;;5.50;2.33;;;27.40;73.00;;;;;;5086033;28;20017;-55
2023/02/06 09:04:34;;;;;;;5.53;2.47;;;27.40;73.00;;;;;;5086549;28;20036;-57
2023/02/06 09:07:00;;;;;;;5.05;2.35;;;27.40;73.20;;;;;;5086025;28;20024;-57
2023/02/06 09:09:27;;;;;;;4.72;2.55;;;27.30;73.10;;;;;;5086381;28;20033;-58
2023/02/06 09:11:55;;;;;;;7.25;2.90;;;27.40;73.30;;;;;;5085936;28;20028;-58
2023/02/06 09:14:21;;;;;;;6.78;2.50;;;27.30;73.30;;;;;;5086376;28;20084;-57
2023/02/06 09:16:48;;;;;;;4.57;2.78;;;27.30;73.40;;;;;;5085380;28;20047;-56
2023/02/06 09:19:14;;;;;;;5.15;2.33;;;27.30;73.50;;;;;;5085562;28;20222;-60
2023/02/06 09:21:41;;;;;;;5.07;2.40;;;27.30;73.60;;;;;;5086115;28;20029;-57
2023/02/06 09:24:09;;;;;;;5.30;2.67;;;27.30;73.90;;;;;;5085983;28;20036;-56
2023/02/06 09:26:38;;;;;;;5.07;2.63;;;27.30;74.00;;;;;;5085608;28;20084;-58
2023/02/06 09:29:07;;;;;;;4.85;2.33;;;27.30;74.10;;;;;;5085718;28;20074;-57
2023/02/06 09:31:36;;;;;;;4.68;2.50;;;27.30;74.20;;;;;;5085575;28;20017;-58
2023/02/06 09:34:04;;;;;;;6.68;3.00;;;27.30;74.20;;;;;;5085698;28;20363;-57
2023/02/06 09:36:33;;;;;;;5.47;2.70;;;27.30;74.30;;;;;;5085484;28;20021;-56
2023/02/06 09:39:01;;;;;;;5.68;2.70;;;27.30;74.30;;;;;;5085738;28;20033;-56
2023/02/06 09:41:51;;;;;;;4.07;2.78;;;27.30;74.30;;;;;;5085203;28;20366;-60
2023/02/06 09:44:19;;;;;;;5.10;2.58;;;27.30;74.30;;;;;;5085231;28;20053;-57
2023/02/06 09:46:53;;;;;;;5.28;2.83;;;27.30;74.30;;;;;;5081876;28;20036;-54
2023/02/06 09:49:34;;;;;;;7.97;3.25;;;27.30;74.30;;;;;;5085217;28;20036;-56
2023/02/06 09:52:20;;;;;;;6.82;2.78;;;27.30;74.40;;;;;;5080033;28;20055;-55
2023/02/06 09:55:08;;;;;;;8.30;2.90;;;27.30;74.30;;;;;;5083631;28;20047;-56
2023/02/06 09:57:35;;;;;;;5.40;2.72;;;27.30;74.40;;;;;;5084990;28;20395;-57
2023/02/06 10:00:38;;;;;;;8.18;2.83;;;27.30;74.40;;;;;;5085425;28;20038;-58
2023/02/06 10:03:34;;;;;;;4.63;2.58;;;27.30;74.50;;;;;;5055646;28;20055;-64
2023/02/06 10:06:18;;;;;;;5.93;2.63;;;27.30;74.60;;;;;;5084101;28;20025;-57
2023/02/06 10:08:52;;;;;;;10.05;2.92;;;27.30;74.60;;;;;;5084579;28;20047;-57
2023/02/06 10:11:50;;;;;;;6.07;2.97;;;27.30;74.70;;;;;;5084702;28;20027;-56
2023/02/06 10:14:38;;;;;;;6.20;2.78;;;27.30;74.80;;;;;;5084945;28;20312;-56
2023/02/06 10:17:19;;;;;;;6.30;3.15;;;27.20;74.80;;;;;;5084507;28;20024;-55
2023/02/06 10:20:16;;;;;;;5.97;2.80;;;27.20;74.90;;;;;;5076109;28;20043;-57
2023/02/06 10:22:43;;;;;;;5.20;3.13;;;27.30;75.00;;;;;;5074823;28;20056;-56
2023/02/06 10:25:36;;;;;;;5.70;2.90;;;27.20;74.90;;;;;;5076147;28;20033;-57
2023/02/06 10:28:26;;;;;;;6.60;2.88;;;27.20;74.90;;;;;;5064550;28;20052;-63
2023/02/06 10:31:19;;;;;;;5.00;3.00;;;27.20;74.90;;;;;;5064320;28;20040;-57
2023/02/06 10:34:12;;;;;;;9.30;3.60;;;27.20;74.90;;;;;;5064328;28;20029;-57
2023/02/06 10:36:39;;;;;;;7.88;3.03;;;27.20;75.00;;;;;;5064262;28;20040;-57
2023/02/06 10:39:42;;;;;;;6.32;3.20;;;27.20;75.00;;;;;;5067492;28;20037;-62
2023/02/06 10:42:20;;;;;;;7.82;3.08;;;27.20;75.00;;;;;;5067807;28;20041;-58
2023/02/06 10:45:14;;;;;;;7.38;3.08;;;27.20;75.10;;;;;;5072735;28;20052;-59
2023/02/06 10:47:48;;;;;;;7.65;3.42;;;27.20;75.10;;;;;;5049359;28;20036;-55
2023/02/06 10:50:31;;;;;;;11.98;3.65;;;27.20;75.10;;;;;;5077193;28;20029;-57
2023/02/06 10:53:13;;;;;;;5.85;2.90;;;27.20;75.10;;;;;;5074477;28;20099;-55
2023/02/06 10:55:55;;;;;;;8.88;3.60;;;27.20;75.10;;;;;;5076739;28;20024;-54
2023/02/06 10:58:28;;;;;;;9.68;3.50;;;27.20;75.10;;;;;;5072808;28;20315;-55
2023/02/06 11:00:56;;;;;;;11.65;3.80;;;27.20;75.10;;;;;;5080172;28;20106;-55
2023/02/06 11:03:31;;;;;;;8.27;3.47;;;27.20;75.10;;;;;;5079291;28;20036;-56
2023/02/06 11:06:00;;;;;;;12.10;3.78;;;27.20;75.20;;;;;;5069332;28;20092;-55
2023/02/06 11:08:38;;;;;;;18.77;4.15;;;27.20;75.20;;;;;;5073774;28;20321;-56
2023/02/06 11:11:30;;;;;;;16.42;4.13;;;27.20;75.20;;;;;;5077678;28;20204;-57
2023/02/06 11:14:06;;;;;;;16.10;3.80;;;27.20;75.40;;;;;;5067513;28;20194;-56
2023/02/06 11:16:37;;;;;;;17.23;3.72;;;27.20;75.60;;;;;;5076887;28;20084;-58
2023/02/06 11:19:40;;;;;;;18.10;4.05;;;27.20;75.60;;;;;;5073398;28;20033;-56
2023/02/06 11:22:09;;;;;;;17.83;3.67;;;27.10;76.40;;;;;;5057201;28;20046;-59
2023/02/06 11:24:37;;;;;;;13.90;3.47;;;27.10;77.50;;;;;;5079203;28;20263;-56
2023/02/06 11:27:14;;;;;;;17.02;3.97;;;27.00;78.30;;;;;;5083404;28;20027;-56
2023/02/06 11:29:47;;;;;;;12.48;3.22;;;26.90;78.00;;;;;;5083456;28;20088;-55
2023/02/06 11:32:35;;;;;;;15.80;3.60;;;26.90;77.90;;;;;;5084213;28;20092;-56
2023/02/06 11:35:27;;;;;;;19.13;3.70;;;26.90;78.00;;;;;;5082621;28;20059;-59
2023/02/06 11:38:03;;;;;;;11.98;3.67;;;27.00;77.90;;;;;;5083076;28;20032;-57
2023/02/06 11:40:30;;;;;;;9.95;3.55;;;27.00;77.90;;;;;;5084560;28;20233;-57
2023/02/06 11:43:21;;;;;;;10.73;3.55;;;27.00;78.00;;;;;;5083005;28;20031;-54
2023/02/06 11:45:51;;;;;;;19.08;3.85;;;27.00;77.60;;;;;;5083723;28;20060;-54
2023/02/06 11:48:36;;;;;;;20.02;4.03;;;27.00;77.40;;;;;;5084010;28;20040;-56
2023/02/06 11:51:03;;;;;;;7.18;2.83;;;27.00;77.40;;;;;;5084476;28;20039;-54
2023/02/06 11:53:30;;;;;;;10.82;3.55;;;27.00;77.10;;;;;;5084430;28;20055;-56
2023/02/06 11:56:16;;;;;;;17.48;3.40;;;27.00;77.20;;;;;;5084117;28;20056;-55
2023/02/06 11:58:43;;;;;;;30.60;4.10;;;27.00;77.20;;;;;;5084209;28;20020;-56
2023/02/06 12:01:20;;;;;;;23.85;3.95;;;27.00;77.00;;;;;;5083938;28;20313;-56
2023/02/06 12:03:50;;;;;;;25.67;4.30;;;27.00;77.10;;;;;;5084188;28;20025;-56
2023/02/06 12:06:39;;;;;;;22.75;4.43;;;27.00;77.10;;;;;;5084404;28;20048;-57
2023/02/06 12:09:12;;;;;;;27.17;4.55;;;27.00;77.20;;;;;;5086112;28;20026;-56
2023/02/06 12:11:58;;;;;;;28.52;4.32;;;27.00;77.20;;;;;;5087546;28;20025;-55
2023/02/06 12:14:48;;;;;;;14.10;4.20;;;27.00;77.40;;;;;;5088151;28;20061;-58
2023/02/06 12:17:27;;;;;;;23.50;4.28;;;27.00;77.40;;;;;;5087571;28;20027;-53
2023/02/06 12:20:20;;;;;;;21.73;4.45;;;27.00;77.40;;;;;;5087693;28;20251;-53
2023/02/06 12:23:06;;;;;;;16.58;3.70;;;27.00;77.40;;;;;;5086856;28;20059;-54
2023/02/06 12:25:37;;;;;;;20.58;3.78;;;27.00;77.40;;;;;;5087147;28;20363;-55
2023/02/06 12:28:15;;;;;;;11.13;3.47;;;27.00;77.20;;;;;;5087235;28;20043;-57
2023/02/06 12:31:13;;;;;;;14.60;3.90;;;27.00;77.20;;;;;;5087774;28;20017;-55
2023/02/06 12:33:51;;;;;;;19.52;3.60;;;27.00;77.10;;;;;;5086910;28;20032;-58
2023/02/06 12:36:24;;;;;;;24.70;3.88;;;27.10;77.10;;;;;;5087114;28;20364;-53
2023/02/06 12:39:01;;;;;;;14.25;3.60;;;27.10;77.20;;;;;;5087558;28;20249;-60
2023/02/06 12:41:49;;;;;;;15.57;3.42;;;27.00;77.20;;;;;;5087147;28;20016;-57
2023/02/06 12:44:42;;;;;;;15.43;3.22;;;27.10;77.30;;;;;;5086909;28;20103;-55
2023/02/06 12:47:41;;;;;;;17.23;3.65;;;27.10;77.30;;;;;;5086953;28;20032;-53
2023/02/06 12:50:33;;;;;;;15.88;3.33;;;27.10;77.50;;;;;;5087450;28;20047;-55
2023/02/06 12:53:11;;;;;;;10.00;3.00;;;27.10;77.40;;;;;;5086923;28;20012;-57
2023/02/06 12:56:14;;;;;;;15.77;3.58;;;27.10;77.60;;;;;;5086794;28;20036;-56
2023/02/06 12:58:44;;;;;;;9.95;3.17;;;27.00;78.50;;;;;;5083931;28;20033;-55
2023/02/06 13:01:26;;;;;;;11.13;3.13;;;27.00;78.20;;;;;;5086822;28;20033;-56
2023/02/06 13:04:00;;;;;;;15.47;3.47;;;27.00;78.40;;;;;;5086914;28;20200;-57
2023/02/06 13:06:52;;;;;;;7.65;3.40;;;27.00;78.60;;;;;;5087152;28;20282;-56
2023/02/06 13:09:34;;;;;;;10.50;3.53;;;27.00;78.70;;;;;;5086491;28;20311;-56